Time;durP1;ratioP1;P1;durP2;ratioP2;P2;SDS_P1;SDS_P2;PMS_P1;PMS_P2;Temp;Humidity;BMP_temperature;BMP_pressure;BME280_temperature;BME280_humidity;BME280_pressure;Samples;Min_cycle;Max_cycle;Signal;HPM_P1;HPM_P2
2022/02/18 00:00:22;;;;;;;427.83;203.23;;;;;;;6.97;100.00;98275.81;5027377;28;20284;-60
2022/02/18 00:02:47;;;;;;;426.97;204.07;;;;;;;7.13;100.00;98283.28;5026913;28;20081;-59
2022/02/18 00:05:13;;;;;;;429.90;215.17;;;;;;;7.14;100.00;98305.38;5022937;28;20478;-61
2022/02/18 00:07:38;;;;;;;436.73;198.33;;;;;;;7.25;100.00;98293.38;5027686;28;20069;-61
2022/02/18 00:10:05;;;;;;;428.07;204.73;;;;;;;7.25;100.00;98293.38;5028237;28;20076;-61
2022/02/18 00:12:30;;;;;;;427.92;203.20;;;;;;;7.26;100.00;98301.84;5024225;28;20049;-59
2022/02/18 00:14:56;;;;;;;429.20;210.23;;;;;;;7.36;100.00;98300.88;5007085;28;20367;-60
2022/02/18 00:17:21;;;;;;;426.80;208.57;;;;;;;7.27;100.00;98293.34;5027633;28;20479;-61
2022/02/18 00:19:47;;;;;;;428.43;215.53;;;;;;;7.26;100.00;98300.13;5029509;28;20046;-60
2022/02/18 00:22:12;;;;;;;433.60;218.43;;;;;;;7.29;100.00;98315.41;5023528;28;20042;-64
2022/02/18 00:24:37;;;;;;;428.07;209.23;;;;;;;7.46;100.00;98311.81;5024895;28;20041;-61
2022/02/18 00:27:03;;;;;;;427.13;212.67;;;;;;;7.46;100.00;98320.31;5028517;28;20548;-61
2022/02/18 00:29:28;;;;;;;426.70;212.53;;;;;;;7.48;100.00;98318.59;5027220;28;20048;-61
2022/02/18 00:31:54;;;;;;;428.83;212.50;;;;;;;7.52;100.00;98297.28;5022655;28;20037;-61
2022/02/18 00:34:19;;;;;;;428.63;219.63;;;;;;;7.53;100.00;98306.63;5003242;28;20057;-61
2022/02/18 00:36:45;;;;;;;429.40;220.73;;;;;;;7.53;100.00;98293.88;5010191;28;20587;-60
2022/02/18 00:39:10;;;;;;;425.77;212.70;;;;;;;7.70;100.00;98301.31;5005130;28;20645;-60
2022/02/18 00:41:36;;;;;;;427.23;210.40;;;;;;;7.62;100.00;98301.41;5002318;28;20457;-61
2022/02/18 00:44:01;;;;;;;429.03;213.50;;;;;;;7.63;100.00;98302.25;5001348;28;20660;-60
2022/02/18 00:46:29;;;;;;;424.13;206.93;;;;;;;7.79;100.00;98319.06;5015889;28;20182;-60
2022/02/18 00:48:55;;;;;;;430.97;209.50;;;;;;;7.73;100.00;98306.38;5009348;28;20041;-61
2022/02/18 00:51:20;;;;;;;435.40;214.80;;;;;;;7.69;100.00;98325.13;5007933;28;21036;-59
2022/02/18 00:53:45;;;;;;;438.97;212.53;;;;;;;7.70;100.00;98332.78;5001163;28;20049;-60
2022/02/18 00:56:11;;;;;;;428.27;213.10;;;;;;;7.82;100.00;98317.31;5012181;28;20038;-59
2022/02/18 00:58:36;;;;;;;425.87;213.73;;;;;;;7.75;100.00;98336.13;5008733;28;20427;-61
2022/02/18 01:01:02;;;;;;;433.63;218.87;;;;;;;7.93;100.00;98329.94;5004481;28;20037;-61
2022/02/18 01:03:28;;;;;;;431.03;214.63;;;;;;;7.87;100.00;98319.81;5001363;28;20082;-61
2022/02/18 01:05:53;;;;;;;431.73;227.27;;;;;;;8.00;100.00;98328.97;5011082;28;20041;-60
2022/02/18 01:08:19;;;;;;;427.17;219.23;;;;;;;8.00;100.00;98311.13;5008483;28;20230;-61
2022/02/18 01:10:44;;;;;;;428.77;218.93;;;;;;;8.04;100.00;98317.88;5006069;28;20046;-61
2022/02/18 01:13:11;;;;;;;430.90;224.20;;;;;;;8.05;100.00;98324.66;5000127;28;20041;-61
2022/02/18 01:15:36;;;;;;;426.83;221.30;;;;;;;8.06;100.00;98339.09;5008342;28;20054;-61
2022/02/18 01:18:04;;;;;;;432.23;239.17;;;;;;;8.02;100.00;98317.03;5004897;28;20279;-61
2022/02/18 01:20:29;;;;;;;435.73;235.47;;;;;;;8.04;100.00;98302.53;5004340;28;20616;-61
2022/02/18 01:22:55;;;;;;;442.13;226.63;;;;;;;8.21;97.26;98330.38;5007734;28;20356;-61
2022/02/18 01:25:20;;;;;;;435.90;228.40;;;;;;;8.17;98.03;98334.69;5008927;28;20046;-60
2022/02/18 01:27:46;;;;;;;436.23;235.27;;;;;;;8.23;96.26;98326.13;5002574;28;20104;-60
2022/02/18 01:30:12;;;;;;;430.50;231.40;;;;;;;8.20;97.05;98327.00;5005808;28;20172;-61
2022/02/18 01:32:38;;;;;;;430.53;234.37;;;;;;;8.24;94.32;98341.41;5008671;28;20045;-61
2022/02/18 01:35:04;;;;;;;429.60;234.73;;;;;;;8.28;91.67;98331.97;5027096;28;20029;-62
2022/02/18 01:37:30;;;;;;;430.80;235.07;;;;;;;8.32;91.06;98320.06;5022523;28;20268;-61
2022/02/18 01:39:55;;;;;;;431.83;235.57;;;;;;;8.43;86.78;98336.06;5024431;28;20038;-63
2022/02/18 01:42:21;;;;;;;433.10;235.87;;;;;;;8.41;88.59;98350.53;5023922;28;20133;-61
2022/02/18 01:44:48;;;;;;;431.73;226.33;;;;;;;8.42;84.26;98355.66;5028308;28;20033;-62
2022/02/18 01:47:20;;;;;;;431.50;245.43;;;;;;;8.45;84.38;98347.09;5025570;28;20045;-62
2022/02/18 01:49:46;;;;;;;437.23;249.50;;;;;;;8.42;86.03;98370.13;5023125;28;20272;-60
2022/02/18 01:52:13;;;;;;;433.47;237.53;;;;;;;8.45;82.99;98357.28;5019786;28;20276;-60
2022/02/18 01:54:38;;;;;;;431.37;236.77;;;;;;;8.41;83.27;98353.09;5025839;28;20276;-60
2022/02/18 01:57:04;;;;;;;431.30;242.10;;;;;;;8.44;81.37;98356.47;5023345;28;20275;-60
2022/02/18 01:59:30;;;;;;;435.73;244.70;;;;;;;8.44;81.61;98347.97;5024425;28;20108;-61
2022/02/18 02:01:58;;;;;;;431.33;237.07;;;;;;;8.45;80.55;98373.47;5030071;28;20033;-61
2022/02/18 02:04:24;;;;;;;434.10;238.13;;;;;;;8.46;79.62;98346.22;5029326;28;20037;-60
2022/02/18 02:06:50;;;;;;;434.90;234.60;;;;;;;8.41;81.44;98363.31;5028551;28;20673;-61
2022/02/18 02:09:16;;;;;;;436.47;241.87;;;;;;;8.36;83.99;98381.25;5030076;28;20253;-61
2022/02/18 02:11:41;;;;;;;434.17;238.47;;;;;;;8.32;84.80;98378.81;5024152;28;20099;-61
2022/02/18 02:14:08;;;;;;;434.57;233.50;;;;;;;8.32;83.39;98359.19;5010259;28;20072;-59
2022/02/18 02:16:34;;;;;;;430.43;233.63;;;;;;;8.32;84.35;98366.84;5021681;28;20152;-60
2022/02/18 02:18:59;;;;;;;431.17;231.70;;;;;;;8.32;83.27;98360.94;5022995;28;20290;-60
2022/02/18 02:21:26;;;;;;;431.47;233.30;;;;;;;8.31;84.22;98356.69;5024081;28;20083;-59
2022/02/18 02:23:53;;;;;;;436.13;239.83;;;;;;;8.25;85.91;98363.53;5023878;28;20100;-56
2022/02/18 02:26:19;;;;;;;430.60;230.63;;;;;;;8.28;83.67;98352.41;5019210;28;20268;-61
2022/02/18 02:28:45;;;;;;;430.73;228.87;;;;;;;8.25;84.53;98345.66;5022004;28;20356;-60
2022/02/18 02:31:10;;;;;;;430.10;231.23;;;;;;;8.22;86.70;98353.38;5025278;28;20056;-61
2022/02/18 02:33:35;;;;;;;435.10;240.43;;;;;;;8.16;87.29;98355.13;5023667;28;20122;-59
2022/02/18 02:36:01;;;;;;;436.50;239.00;;;;;;;8.20;85.69;98357.63;5022478;28;20033;-59
2022/02/18 02:38:26;;;;;;;436.10;230.40;;;;;;;8.27;83.73;98366.06;5023500;28;20065;-60
2022/02/18 02:40:52;;;;;;;437.03;236.20;;;;;;;8.32;80.96;98363.47;5008095;28;20037;-61
2022/02/18 02:43:17;;;;;;;433.37;234.27;;;;;;;8.34;80.43;98362.59;5023014;28;20069;-61
2022/02/18 02:45:43;;;;;;;440.50;236.53;;;;;;;8.36;81.07;98360.84;5020541;28;20045;-60
2022/02/18 02:48:09;;;;;;;433.47;238.90;;;;;;;8.35;82.13;98365.97;5023097;28;20046;-61
2022/02/18 02:50:34;;;;;;;435.80;236.70;;;;;;;8.34;80.12;98348.97;5026725;28;20084;-62
2022/02/18 02:52:59;;;;;;;438.03;239.07;;;;;;;8.30;80.94;98352.44;5021775;28;20052;-60
2022/02/18 02:55:25;;;;;;;433.67;238.00;;;;;;;8.31;80.36;98361.78;5020882;28;20045;-58
2022/02/18 02:57:51;;;;;;;437.47;240.57;;;;;;;8.26;81.01;98343.94;5023813;28;20042;-61
2022/02/18 03:00:17;;;;;;;436.10;241.63;;;;;;;8.26;79.26;98364.38;5025607;28;20045;-61
2022/02/18 03:02:43;;;;;;;434.23;236.53;;;;;;;8.28;77.87;98348.16;5022490;28;20463;-61
2022/02/18 03:05:10;;;;;;;436.97;228.80;;;;;;;8.20;80.49;98372.94;5020345;28;20279;-61
2022/02/18 03:07:35;;;;;;;435.80;230.57;;;;;;;8.26;77.20;98351.59;5023226;28;20351;-62
2022/02/18 03:10:01;;;;;;;433.77;234.03;;;;;;;8.25;77.10;98352.47;5024558;28;20367;-62
2022/02/18 03:12:27;;;;;;;432.87;236.80;;;;;;;8.25;74.55;98340.53;5020639;28;20045;-60
2022/02/18 03:14:53;;;;;;;432.13;233.50;;;;;;;8.23;76.94;98347.38;5019016;28;20346;-61
2022/02/18 03:17:18;;;;;;;434.23;229.73;;;;;;;8.20;78.06;98352.53;5020817;28;20041;-60
2022/02/18 03:19:44;;;;;;;438.70;241.33;;;;;;;8.07;80.00;98332.28;5022520;28;20111;-61
2022/02/18 03:22:09;;;;;;;427.40;219.80;;;;;;;8.10;76.44;98335.66;5020332;28;20192;-61
2022/02/18 03:24:35;;;;;;;436.10;233.97;;;;;;;8.24;72.79;98336.28;5017956;28;20404;-61
2022/02/18 03:27:02;;;;;;;440.03;230.70;;;;;;;8.14;76.23;98333.91;5025274;28;20173;-61
2022/02/18 03:29:27;;;;;;;436.47;231.07;;;;;;;8.05;77.63;98334.88;5025457;28;20638;-61
2022/02/18 03:31:53;;;;;;;433.13;233.87;;;;;;;8.00;78.33;98336.63;5021239;28;20271;-60
2022/02/18 03:34:19;;;;;;;435.60;235.17;;;;;;;8.03;79.55;98340.84;5005727;28;20053;-61
2022/02/18 03:36:44;;;;;;;427.47;222.10;;;;;;;7.96;77.98;98339.25;5010124;28;20034;-60
2022/02/18 03:39:10;;;;;;;434.83;232.90;;;;;;;7.90;79.70;98337.63;5006990;28;20296;-61
2022/02/18 03:41:36;;;;;;;429.07;218.13;;;;;;;8.01;75.49;98332.38;5007562;28;20384;-61
2022/02/18 03:44:01;;;;;;;429.63;222.67;;;;;;;7.93;77.70;98326.53;5009477;28;20391;-61
2022/02/18 03:46:27;;;;;;;429.83;219.77;;;;;;;7.88;79.23;98323.19;5007634;28;20811;-61
2022/02/18 03:48:52;;;;;;;428.67;219.27;;;;;;;7.79;81.07;98331.81;5010975;28;20052;-60
2022/02/18 03:51:18;;;;;;;435.50;225.87;;;;;;;7.73;80.61;98326.78;5005587;28;20089;-56
2022/02/18 03:53:45;;;;;;;433.93;227.67;;;;;;;7.69;81.22;98309.81;5004274;28;20049;-58
2022/02/18 03:56:11;;;;;;;432.20;230.47;;;;;;;7.69;79.96;98310.66;5010501;28;20053;-58
2022/02/18 03:58:36;;;;;;;430.83;221.90;;;;;;;7.62;81.41;98300.56;5005149;28;20258;-60
2022/02/18 04:01:02;;;;;;;435.23;222.03;;;;;;;7.57;82.63;98315.94;5005165;28;20037;-58
2022/02/18 04:03:27;;;;;;;433.33;219.67;;;;;;;7.50;84.11;98313.47;5004923;28;20069;-59
2022/02/18 04:05:53;;;;;;;431.77;215.90;;;;;;;7.49;84.47;98311.78;5006513;28;20115;-57
2022/02/18 04:08:18;;;;;;;428.20;215.10;;;;;;;7.42;85.44;98320.38;5010002;28;20519;-55
2022/02/18 04:10:44;;;;;;;431.27;215.03;;;;;;;7.41;84.66;98316.97;5003600;28;20054;-59
2022/02/18 04:13:09;;;;;;;425.73;205.50;;;;;;;7.33;86.03;98319.63;5006755;28;20046;-57
2022/02/18 04:15:35;;;;;;;425.80;211.33;;;;;;;7.26;86.84;98328.19;5008258;28;20038;-58
2022/02/18 04:18:00;;;;;;;424.30;209.53;;;;;;;7.37;86.00;98319.56;5006393;28;20084;-60
2022/02/18 04:20:27;;;;;;;425.40;205.73;;;;;;;7.31;87.01;98328.13;5005120;28;20030;-58
2022/02/18 04:22:53;;;;;;;424.90;202.67;;;;;;;7.24;87.82;98347.75;5005577;28;20108;-59
2022/02/18 04:25:18;;;;;;;431.70;212.00;;;;;;;7.17;88.91;98341.00;5006255;28;20269;-59
2022/02/18 04:28:09;;;;;;;429.27;208.70;;;;;;;7.22;90.13;98340.97;5008975;28;20124;-58
2022/02/18 04:30:35;;;;;;;428.53;211.73;;;;;;;7.10;91.09;98347.03;5005023;28;20089;-59
2022/02/18 04:33:00;;;;;;;425.43;203.43;;;;;;;6.95;92.80;98346.34;5008563;28;20307;-58
2022/02/18 04:35:26;;;;;;;426.87;211.93;;;;;;;6.93;93.50;98343.81;5006410;28;20093;-59
2022/02/18 04:37:52;;;;;;;425.97;202.33;;;;;;;6.89;93.85;98349.78;5002618;28;20399;-60
2022/02/18 04:40:18;;;;;;;425.20;209.60;;;;;;;6.80;95.02;98350.72;5003587;28;20045;-59
2022/02/18 04:42:44;;;;;;;425.57;203.63;;;;;;;6.71;96.13;98348.25;5008396;28;20044;-61
2022/02/18 04:45:10;;;;;;;424.90;209.43;;;;;;;6.58;97.38;98356.00;5005612;28;20599;-61
2022/02/18 04:47:36;;;;;;;426.53;202.07;;;;;;;6.46;98.75;98354.38;5002330;28;20273;-58
2022/02/18 04:50:03;;;;;;;426.07;197.83;;;;;;;6.45;100.00;98372.25;5005533;28;20033;-58
2022/02/18 04:52:28;;;;;;;428.57;200.77;;;;;;;6.47;100.00;98380.69;5004919;28;20050;-56
2022/02/18 04:54:54;;;;;;;428.53;196.77;;;;;;;6.40;100.00;98383.31;5003798;28;20272;-58
2022/02/18 04:57:20;;;;;;;426.03;194.53;;;;;;;6.27;100.00;98373.19;5002556;28;20144;-59
2022/02/18 04:59:45;;;;;;;426.33;201.20;;;;;;;6.11;100.00;98374.16;5007875;28;20056;-61
2022/02/18 05:02:10;;;;;;;428.90;206.33;;;;;;;5.94;100.00;98376.78;5005781;28;20049;-58
2022/02/18 05:04:36;;;;;;;430.33;197.73;;;;;;;5.77;100.00;98381.88;5005141;28;20125;-59
2022/02/18 05:07:02;;;;;;;424.60;195.77;;;;;;;5.79;100.00;98374.25;5003036;28;20041;-59
2022/02/18 05:09:27;;;;;;;424.57;193.60;;;;;;;5.67;100.00;98387.03;5008962;28;20034;-58
2022/02/18 05:11:52;;;;;;;426.03;195.47;;;;;;;5.57;100.00;98386.19;5008510;28;20415;-58
2022/02/18 05:14:18;;;;;;;426.97;208.43;;;;;;;5.41;100.00;98377.78;5006240;28;20790;-58
2022/02/18 05:16:44;;;;;;;431.17;202.17;;;;;;;5.27;100.00;98378.66;5002620;28;20038;-58
2022/02/18 05:19:09;;;;;;;427.90;201.33;;;;;;;5.10;100.00;98381.22;5002259;28;20038;-60
2022/02/18 05:21:38;;;;;;;427.63;194.07;;;;;;;4.99;100.00;98385.47;5006681;28;20277;-58
2022/02/18 05:24:05;;;;;;;424.63;197.13;;;;;;;4.90;100.00;98375.31;5006698;28;20038;-60
2022/02/18 05:26:31;;;;;;;422.15;189.70;;;;;;;4.78;100.00;98376.19;5001696;28;20050;-58
2022/02/18 05:28:56;;;;;;;427.00;187.53;;;;;;;4.72;100.00;98371.09;5006966;28;20483;-60
2022/02/18 05:31:21;;;;;;;421.50;183.07;;;;;;;4.62;100.00;98369.41;5006397;28;20034;-60
2022/02/18 05:33:47;;;;;;;429.87;190.63;;;;;;;4.61;100.00;98382.94;5012717;28;20057;-60
2022/02/18 05:36:12;;;;;;;424.60;180.67;;;;;;;4.66;100.00;98378.72;5019748;28;20045;-58
2022/02/18 05:38:42;;;;;;;423.77;177.17;;;;;;;4.62;100.00;98383.81;5021914;28;20404;-59
2022/02/18 05:41:11;;;;;;;421.83;174.53;;;;;;;4.67;100.00;98393.09;5021410;28;20107;-60
2022/02/18 05:43:36;;;;;;;421.80;180.53;;;;;;;4.90;100.00;98383.78;5024219;28;21026;-59
2022/02/18 05:46:02;;;;;;;420.53;179.20;;;;;;;4.84;100.00;98391.41;5022619;28;20269;-60
2022/02/18 05:48:27;;;;;;;420.97;183.00;;;;;;;4.90;100.00;98382.94;5025733;28;20160;-60
2022/02/18 05:50:53;;;;;;;424.33;182.17;;;;;;;4.89;100.00;98399.88;5024200;28;20088;-59
2022/02/18 05:53:19;;;;;;;421.47;174.50;;;;;;;4.91;100.00;98382.94;5021838;28;20048;-59
2022/02/18 05:55:44;;;;;;;426.67;176.70;;;;;;;5.92;100.00;98381.00;5022775;28;20715;-58
2022/02/18 05:58:09;;;;;;;429.77;186.50;;;;;;;6.86;99.10;98382.97;5023746;28;20460;-58
2022/02/18 06:00:35;;;;;;;432.70;196.90;;;;;;;7.29;94.00;98383.41;5024757;28;20045;-59
2022/02/18 06:03:00;;;;;;;437.30;211.50;;;;;;;7.68;89.41;98382.16;5021007;28;20421;-58
2022/02/18 06:05:25;;;;;;;426.77;206.47;;;;;;;7.85;88.58;98397.25;5016564;28;20045;-58
2022/02/18 06:07:51;;;;;;;433.97;220.37;;;;;;;7.86;87.29;98392.13;5019889;28;20093;-57
2022/02/18 06:10:16;;;;;;;432.47;222.90;;;;;;;7.97;88.79;98408.16;5020262;28;20788;-62
2022/02/18 06:12:42;;;;;;;434.23;230.20;;;;;;;8.01;88.22;98408.97;5017651;28;20035;-58
2022/02/18 06:15:07;;;;;;;432.50;228.80;;;;;;;8.19;86.46;98406.16;5019939;28;20051;-57
2022/02/18 06:17:33;;;;;;;444.63;235.43;;;;;;;8.46;84.06;98405.81;5020748;28;20128;-60
2022/02/18 06:19:58;;;;;;;443.27;235.43;;;;;;;8.59;81.66;98403.94;5022273;28;20187;-60
2022/02/18 06:22:24;;;;;;;445.70;239.47;;;;;;;8.62;80.63;98409.00;5020499;28;20056;-60
2022/02/18 06:24:49;;;;;;;439.80;240.43;;;;;;;8.63;81.91;98392.81;5019966;28;20057;-59
2022/02/18 06:27:14;;;;;;;448.47;245.07;;;;;;;8.77;80.89;98393.44;5023467;28;20219;-60
2022/02/18 06:29:40;;;;;;;450.50;246.43;;;;;;;8.78;82.87;98414.75;5021919;28;20120;-59
2022/02/18 06:32:11;;;;;;;446.70;255.37;;;;;;;9.02;79.52;98392.19;5025865;28;20459;-60
2022/02/18 06:34:36;;;;;;;448.20;256.50;;;;;;;9.14;80.15;98402.19;5022491;28;20257;-59
2022/02/18 06:37:03;;;;;;;446.40;262.80;;;;;;;9.29;78.06;98383.19;5023592;28;20750;-59
2022/02/18 06:39:29;;;;;;;448.27;259.27;;;;;;;9.34;79.61;98381.38;5022133;28;20156;-60
2022/02/18 06:41:54;;;;;;;456.20;269.87;;;;;;;9.40;78.25;98395.78;5022293;28;20352;-59
2022/02/18 06:44:20;;;;;;;455.90;273.67;;;;;;;9.42;80.06;98401.72;5020985;28;20042;-60
2022/02/18 06:46:45;;;;;;;459.67;277.57;;;;;;;9.35;81.57;98400.13;5023598;28;20494;-60
2022/02/18 06:49:11;;;;;;;454.17;275.03;;;;;;;9.36;82.30;98399.25;5023480;28;20069;-59
2022/02/18 06:51:37;;;;;;;451.00;275.30;;;;;;;9.34;82.13;98393.31;5018727;28;20045;-59
2022/02/18 06:54:03;;;;;;;450.33;274.80;;;;;;;9.42;79.35;98399.16;5021701;28;20045;-60
2022/02/18 06:56:28;;;;;;;448.70;268.93;;;;;;;9.35;80.21;98403.53;5025500;28;20295;-60
2022/02/18 06:58:54;;;;;;;451.43;269.63;;;;;;;9.46;78.60;98411.03;5020104;28;20038;-60
2022/02/18 07:01:20;;;;;;;451.33;273.37;;;;;;;9.45;77.62;98411.91;5019262;28;20503;-59
2022/02/18 07:03:46;;;;;;;450.23;276.47;;;;;;;9.51;77.82;98411.75;5006848;28;20382;-60
2022/02/18 07:06:11;;;;;;;450.10;271.10;;;;;;;9.45;79.57;98424.69;5025542;28;20279;-60
2022/02/18 07:08:36;;;;;;;454.43;271.23;;;;;;;9.45;80.69;98432.38;5018775;28;20699;-60
2022/02/18 07:11:02;;;;;;;448.83;271.70;;;;;;;9.44;78.53;98436.63;5021014;28;20156;-59
2022/02/18 07:13:28;;;;;;;454.83;273.40;;;;;;;9.44;78.95;98438.34;5026431;28;20163;-60
2022/02/18 07:15:55;;;;;;;451.07;273.63;;;;;;;9.58;75.05;98438.97;5024059;28;20125;-59
2022/02/18 07:18:21;;;;;;;448.63;269.97;;;;;;;9.57;75.36;98430.44;5023212;28;20234;-59
2022/02/18 07:20:47;;;;;;;452.73;275.73;;;;;;;9.62;73.09;98427.78;5026579;28;20298;-59
2022/02/18 07:23:12;;;;;;;454.63;278.03;;;;;;;9.66;72.91;98429.41;5037181;28;20272;-59
2022/02/18 07:25:38;;;;;;;454.03;279.67;;;;;;;9.67;73.43;98433.69;5035769;28;20902;-58
2022/02/18 07:28:03;;;;;;;452.10;280.50;;;;;;;9.68;73.72;98426.81;5026555;28;20041;-59
2022/02/18 07:30:29;;;;;;;449.60;269.30;;;;;;;9.64;73.90;98426.88;5026992;28;20037;-59
2022/02/18 07:32:54;;;;;;;451.87;275.43;;;;;;;9.63;75.07;98424.38;5025753;28;20568;-58
2022/02/18 07:35:20;;;;;;;451.73;278.87;;;;;;;9.62;73.19;98422.66;5030170;28;20529;-58
2022/02/18 07:37:49;;;;;;;452.70;284.90;;;;;;;9.75;73.29;98428.41;5023685;28;20644;-59
2022/02/18 07:40:16;;;;;;;453.33;282.10;;;;;;;9.82;72.79;98438.50;5027866;28;20430;-59
2022/02/18 07:42:43;;;;;;;450.07;287.80;;;;;;;9.89;71.77;98432.38;5025557;28;20390;-62
2022/02/18 07:45:10;;;;;;;451.23;290.77;;;;;;;9.99;70.84;98433.03;5025929;28;20276;-61
2022/02/18 07:47:36;;;;;;;457.20;296.40;;;;;;;10.13;71.07;98430.22;5020242;28;20332;-61
2022/02/18 07:50:04;;;;;;;454.20;292.17;;;;;;;10.22;67.73;98425.78;5022882;28;20360;-62
2022/02/18 07:52:30;;;;;;;454.10;298.10;;;;;;;10.40;67.07;98417.69;5027737;28;20161;-62
2022/02/18 07:54:56;;;;;;;457.90;302.93;;;;;;;10.42;65.81;98423.63;5025785;28;20267;-60
2022/02/18 07:57:23;;;;;;;459.87;311.40;;;;;;;10.49;66.05;98416.63;5023254;28;20045;-60
2022/02/18 07:59:48;;;;;;;456.27;312.93;;;;;;;10.57;65.61;98419.88;5024790;28;20280;-61
2022/02/18 08:02:14;;;;;;;458.97;307.37;;;;;;;10.67;66.44;98423.06;5025764;28;20286;-59
2022/02/18 08:04:40;;;;;;;465.43;322.43;;;;;;;10.73;66.05;98420.38;5026999;28;20140;-60
2022/02/18 08:07:05;;;;;;;458.57;312.43;;;;;;;10.72;65.13;98422.09;5023319;28;20042;-58
2022/02/18 08:09:33;;;;;;;459.90;317.37;;;;;;;10.76;66.24;98423.72;5026261;28;20132;-59
2022/02/18 08:11:59;;;;;;;461.53;317.90;;;;;;;10.71;66.00;98428.09;5027656;28;20029;-59
2022/02/18 08:14:24;;;;;;;460.70;317.53;;;;;;;10.80;68.40;98432.19;5025119;28;20543;-58
2022/02/18 08:16:49;;;;;;;464.03;323.00;;;;;;;10.82;66.66;98433.81;5021324;28;20041;-58
2022/02/18 08:19:15;;;;;;;461.27;317.13;;;;;;;10.78;65.64;98441.63;5025664;28;20451;-58
2022/02/18 08:21:41;;;;;;;458.70;314.60;;;;;;;10.77;68.07;98435.66;5028072;28;20037;-58
2022/02/18 08:24:06;;;;;;;457.20;313.37;;;;;;;10.85;66.98;98432.91;5023984;28;20571;-58
2022/02/18 08:26:33;;;;;;;462.50;318.53;;;;;;;10.88;66.54;98432.84;5020878;28;20037;-59
2022/02/18 08:28:58;;;;;;;458.40;320.87;;;;;;;10.98;64.88;98431.75;5025917;28;20395;-59
2022/02/18 08:31:24;;;;;;;462.80;323.07;;;;;;;10.87;64.22;98432.00;5029014;28;20272;-58
2022/02/18 08:33:49;;;;;;;463.47;322.97;;;;;;;10.91;64.54;98427.63;5024162;28;20057;-59
2022/02/18 08:36:15;;;;;;;460.50;323.70;;;;;;;10.91;65.74;98441.28;5024703;28;20545;-58
2022/02/18 08:38:40;;;;;;;461.63;324.73;;;;;;;10.90;66.44;98437.06;5027207;28;20049;-59
2022/02/18 08:41:06;;;;;;;464.80;324.57;;;;;;;10.98;64.36;98421.50;5031084;28;20104;-59
2022/02/18 08:43:32;;;;;;;465.53;323.97;;;;;;;11.02;64.62;98422.25;5024919;28;20592;-58
2022/02/18 08:45:57;;;;;;;475.70;335.17;;;;;;;11.06;63.17;98429.00;5025576;28;20037;-60
2022/02/18 08:48:23;;;;;;;467.27;331.43;;;;;;;11.10;64.82;98433.19;5026718;28;20872;-63
2022/02/18 08:50:48;;;;;;;465.23;336.07;;;;;;;11.14;63.77;98443.34;5026959;28;20456;-60
2022/02/18 08:53:14;;;;;;;467.67;335.83;;;;;;;11.16;62.13;98430.47;5023683;28;20046;-60
2022/02/18 08:55:39;;;;;;;462.50;332.20;;;;;;;11.15;61.28;98432.19;5022044;28;20041;-59
2022/02/18 08:58:06;;;;;;;464.20;338.33;;;;;;;11.25;62.78;98436.19;5024916;28;20034;-59
2022/02/18 09:00:31;;;;;;;470.57;341.47;;;;;;;11.17;62.64;98427.84;5023445;28;20477;-60
2022/02/18 09:02:57;;;;;;;462.57;341.07;;;;;;;11.13;62.45;98433.09;5020584;28;20306;-59
2022/02/18 09:05:24;;;;;;;463.63;328.33;;;;;;;11.10;62.46;98433.19;5021743;28;20052;-59
2022/02/18 09:07:50;;;;;;;464.80;334.63;;;;;;;11.16;63.97;98423.59;5024271;28;20045;-60
2022/02/18 09:10:15;;;;;;;463.30;333.13;;;;;;;11.20;62.26;98425.19;5022255;28;20267;-59
2022/02/18 09:12:41;;;;;;;465.33;335.60;;;;;;;11.13;63.13;98422.81;5020870;28;20060;-59
2022/02/18 09:15:09;;;;;;;461.60;334.30;;;;;;;11.14;61.79;98417.66;5024051;28;20063;-60
2022/02/18 09:17:34;;;;;;;464.13;335.57;;;;;;;11.20;62.12;98425.19;5025523;28;20280;-59
2022/02/18 09:20:00;;;;;;;461.53;335.07;;;;;;;11.30;62.38;98418.13;5025802;28;20303;-60
2022/02/18 09:22:25;;;;;;;468.13;352.40;;;;;;;11.41;62.58;98426.41;5023093;28;20043;-61
2022/02/18 09:24:52;;;;;;;469.90;361.30;;;;;;;11.44;61.88;98405.78;5025328;28;20399;-59
2022/02/18 09:27:18;;;;;;;469.33;357.23;;;;;;;11.44;63.25;98408.34;5026407;28;20037;-60
2022/02/18 09:29:43;;;;;;;466.00;354.33;;;;;;;11.66;63.30;98404.34;5022357;28;20283;-61
2022/02/18 09:32:09;;;;;;;470.77;360.83;;;;;;;11.67;61.66;98405.19;5023471;28;20042;-59
2022/02/18 09:34:34;;;;;;;473.00;367.40;;;;;;;11.57;60.15;98406.31;5024155;28;20034;-60
2022/02/18 09:37:00;;;;;;;472.97;366.60;;;;;;;11.61;59.71;98397.63;5023435;28;20934;-60
2022/02/18 09:39:26;;;;;;;473.87;373.20;;;;;;;11.81;59.68;98400.53;5021283;28;20069;-58
2022/02/18 09:41:54;;;;;;;473.93;375.77;;;;;;;12.00;58.85;98409.44;5025551;28;20041;-60
2022/02/18 09:44:22;;;;;;;472.13;377.93;;;;;;;12.16;59.29;98389.25;5024344;28;20637;-60
2022/02/18 09:46:49;;;;;;;475.03;387.33;;;;;;;12.11;59.64;98404.81;5019872;28;20279;-60
2022/02/18 09:49:15;;;;;;;474.47;395.53;;;;;;;12.18;54.95;98392.63;5023075;28;20266;-60
2022/02/18 09:51:40;;;;;;;476.97;396.37;;;;;;;12.38;55.83;98392.88;5025102;28;20273;-60
2022/02/18 09:54:06;;;;;;;476.87;396.43;;;;;;;12.50;54.52;98394.25;5022768;28;20319;-59
2022/02/18 09:56:33;;;;;;;476.93;405.23;;;;;;;12.69;52.76;98385.91;5026042;28;20049;-60
2022/02/18 09:59:01;;;;;;;476.93;401.77;;;;;;;12.33;53.03;98381.91;5022071;28;20660;-58
2022/02/18 10:01:28;;;;;;;478.63;407.87;;;;;;;12.53;53.54;98378.72;5020711;28;20741;-59
2022/02/18 10:03:54;;;;;;;475.07;406.13;;;;;;;12.77;53.08;98372.81;5025982;28;20272;-60
2022/02/18 10:06:20;;;;;;;481.80;424.07;;;;;;;12.73;52.20;98366.91;5024776;28;20279;-58
2022/02/18 10:08:50;;;;;;;479.70;423.73;;;;;;;12.73;51.20;98361.75;5020823;28;20045;-59
2022/02/18 10:11:16;;;;;;;479.33;421.93;;;;;;;12.97;51.74;98372.16;5023027;28;20108;-60
2022/02/18 10:13:43;;;;;;;489.73;436.43;;;;;;;13.05;50.93;98372.75;5026821;28;20347;-59
2022/02/18 10:16:15;;;;;;;491.67;438.30;;;;;;;13.20;49.90;98374.84;5028934;28;20284;-58
2022/02/18 10:18:55;;;;;;;497.43;443.60;;;;;;;13.44;50.58;98383.47;5027442;28;20299;-59
2022/02/18 10:21:32;;;;;;;501.57;447.77;;;;;;;13.64;48.98;98370.75;5025760;28;20276;-59
2022/02/18 10:24:17;;;;;;;505.97;452.17;;;;;;;13.82;48.69;98371.81;5025350;28;20708;-58
2022/02/18 10:26:43;;;;;;;524.63;470.27;;;;;;;13.85;49.03;98369.13;5029689;28;20267;-59
2022/02/18 10:29:17;;;;;;;540.27;485.50;;;;;;;13.99;48.87;98362.59;5023822;28;20742;-59
2022/02/18 10:31:42;;;;;;;534.57;479.77;;;;;;;13.92;50.25;98358.53;5023131;28;20445;-56
2022/02/18 10:34:10;;;;;;;541.20;486.43;;;;;;;13.89;50.27;98347.50;5024145;28;20517;-61
2022/02/18 10:36:38;;;;;;;550.07;495.27;;;;;;;14.11;49.22;98350.97;5020378;28;20037;-60
2022/02/18 10:39:42;;;;;;;545.67;490.77;;;;;;;14.16;48.72;98344.75;5020027;28;20033;-60
2022/02/18 10:42:08;;;;;;;557.07;502.27;;;;;;;14.31;48.38;98339.88;4965083;28;20093;-58
2022/02/18 10:44:34;;;;;;;562.73;507.50;;;;;;;14.05;48.11;98331.41;4964148;28;20614;-62
2022/02/18 10:47:05;;;;;;;563.23;508.13;;;;;;;14.24;48.35;98325.56;4961410;28;20042;-60
2022/02/18 10:49:33;;;;;;;571.90;516.47;;;;;;;14.32;48.55;98315.78;4961929;28;20118;-60
2022/02/18 10:52:10;;;;;;;592.00;535.77;;;;;;;14.33;48.87;98305.41;4967983;28;20568;-60
2022/02/18 10:54:36;;;;;;;604.10;547.23;;;;;;;14.22;49.02;98286.94;4968287;28;20923;-59
2022/02/18 10:57:21;;;;;;;611.50;554.60;;;;;;;14.22;49.05;98293.81;4967005;28;20039;-60
2022/02/18 10:59:48;;;;;;;582.30;526.28;;;;;;;13.83;48.08;98288.47;4968196;28;20137;-60